createdAt,value
2018-06-24T00:02:09.298Z,13.30
2018-06-24T00:04:37.847Z,13.30
2018-06-24T00:07:06.390Z,13.30
2018-06-24T00:09:34.906Z,13.30
2018-06-24T00:12:03.446Z,13.30
2018-06-24T00:14:32.069Z,13.30
2018-06-24T00:17:00.578Z,13.30
2018-06-24T00:19:29.118Z,13.30
2018-06-24T00:21:57.666Z,13.30
2018-06-24T00:24:26.128Z,13.30
2018-06-24T00:26:54.686Z,13.30
2018-06-24T00:29:23.204Z,13.30
2018-06-24T00:31:51.999Z,13.30
2018-06-24T00:34:20.502Z,13.40
2018-06-24T00:36:49.034Z,13.40
2018-06-24T00:39:17.582Z,13.40
2018-06-24T00:41:46.083Z,13.40
2018-06-24T00:44:14.665Z,13.40
2018-06-24T00:46:43.191Z,13.40
2018-06-24T00:49:11.843Z,13.40
2018-06-24T00:51:40.334Z,13.40
2018-06-24T00:54:09.064Z,13.40
2018-06-24T00:56:37.551Z,13.40
2018-06-24T00:59:06.106Z,13.40
2018-06-24T01:01:34.679Z,13.40
2018-06-24T01:04:03.151Z,13.40
2018-06-24T01:06:31.711Z,13.40
2018-06-24T01:09:00.326Z,13.30
2018-06-24T01:11:28.959Z,13.40
2018-06-24T01:13:57.437Z,13.40
2018-06-24T01:16:25.954Z,13.40
2018-06-24T01:18:54.543Z,13.40
2018-06-24T01:21:23.313Z,13.30
2018-06-24T01:26:20.099Z,13.30
2018-06-24T01:28:48.566Z,13.30
2018-06-24T01:31:17.047Z,13.30
2018-06-24T01:33:45.676Z,13.30
2018-06-24T01:36:14.183Z,13.30
2018-06-24T01:38:42.692Z,13.30
2018-06-24T01:41:11.155Z,13.30
2018-06-24T01:43:39.663Z,13.30
2018-06-24T01:46:08.166Z,13.30
2018-06-24T01:48:36.906Z,13.30
2018-06-24T01:51:05.413Z,13.20
2018-06-24T01:53:33.916Z,13.20
2018-06-24T01:56:02.477Z,13.20
2018-06-24T01:58:30.977Z,13.20
2018-06-24T02:00:59.474Z,13.20
2018-06-24T02:03:28.239Z,13.20
2018-06-24T02:05:56.731Z,13.20
2018-06-24T02:08:25.275Z,13.20
2018-06-24T02:10:53.746Z,13.20
2018-06-24T02:13:22.259Z,13.20
2018-06-24T02:15:50.769Z,13.20
2018-06-24T02:18:19.466Z,13.20
2018-06-24T02:20:48.090Z,13.20
2018-06-24T02:23:16.651Z,13.20
2018-06-24T02:25:45.150Z,13.20
2018-06-24T02:28:13.702Z,13.10
2018-06-24T02:30:42.312Z,13.10
2018-06-24T02:33:11.006Z,13.10
2018-06-24T02:35:39.647Z,13.10
2018-06-24T02:38:08.214Z,13.10
2018-06-24T02:40:36.690Z,13.10
2018-06-24T02:43:05.338Z,13.00
2018-06-24T02:45:33.829Z,13.00
2018-06-24T02:48:02.374Z,13.00
2018-06-24T02:50:30.994Z,13.00
2018-06-24T02:52:59.517Z,13.00
2018-06-24T02:55:27.966Z,13.00
2018-06-24T03:00:24.687Z,12.90
2018-06-24T03:02:53.139Z,12.90
2018-06-24T03:05:21.783Z,12.90
2018-06-24T03:07:50.647Z,12.90
2018-06-24T03:10:19.110Z,12.90
2018-06-24T03:12:47.622Z,12.90
2018-06-24T03:15:16.103Z,12.90
2018-06-24T03:17:44.558Z,12.80
2018-06-24T03:20:13.211Z,12.80
2018-06-24T03:25:09.951Z,12.80
2018-06-24T03:27:38.468Z,12.80
2018-06-24T03:30:07.127Z,12.80
2018-06-24T03:32:35.655Z,12.80
2018-06-24T03:35:04.190Z,12.80
2018-06-24T03:37:32.666Z,12.80
2018-06-24T03:40:01.273Z,12.80
2018-06-24T03:47:26.302Z,12.70
2018-06-24T03:49:54.799Z,12.60
2018-06-24T03:52:23.294Z,12.60
2018-06-24T03:54:51.759Z,12.60
2018-06-24T03:57:20.466Z,12.60
2018-06-24T03:59:48.938Z,12.60
2018-06-24T04:02:17.420Z,12.60
2018-06-24T04:04:45.963Z,12.60
2018-06-24T04:07:14.527Z,12.60
2018-06-24T04:09:43.227Z,12.60
2018-06-24T04:12:11.683Z,12.60
2018-06-24T04:14:40.407Z,12.50
2018-06-24T04:17:08.878Z,12.50
2018-06-24T04:22:05.586Z,12.50
2018-06-24T04:24:34.031Z,12.50
2018-06-24T04:27:02.556Z,12.50
2018-06-24T04:29:31.038Z,12.50
2018-06-24T04:31:59.603Z,12.50
2018-06-24T04:34:28.063Z,12.50
2018-06-24T04:36:56.554Z,12.60
2018-06-24T04:39:25.014Z,12.60
2018-06-24T04:41:53.510Z,12.70
2018-06-24T04:44:21.995Z,12.70
2018-06-24T04:46:50.590Z,12.70
2018-06-24T04:49:19.069Z,12.80
2018-06-24T04:51:47.585Z,12.80
2018-06-24T04:54:16.031Z,12.80
2018-06-24T04:56:44.675Z,12.90
2018-06-24T04:59:13.223Z,12.90
2018-06-24T05:01:41.829Z,13.00
2018-06-24T05:04:10.329Z,13.00
2018-06-24T05:06:38.967Z,13.00
2018-06-24T05:09:08.906Z,13.00
2018-06-24T05:11:37.473Z,13.10
2018-06-24T05:14:06.017Z,13.10
2018-06-24T05:16:34.659Z,13.10
2018-06-24T05:19:03.557Z,13.10
2018-06-24T05:21:32.030Z,13.10
2018-06-24T05:26:29.067Z,13.10
2018-06-24T05:28:57.561Z,13.20
2018-06-24T05:31:26.194Z,13.10
2018-06-24T05:33:54.814Z,13.20
2018-06-24T05:36:23.347Z,13.10
2018-06-24T05:38:52.030Z,13.20
2018-06-24T05:41:20.472Z,13.20
2018-06-24T05:43:49.046Z,13.20
2018-06-24T05:46:17.586Z,13.20
2018-06-24T05:48:46.234Z,13.20
2018-06-24T05:51:14.723Z,13.30
2018-06-24T05:53:43.268Z,13.20
2018-06-24T05:56:11.947Z,13.30
2018-06-24T05:58:40.467Z,13.30
2018-06-24T06:01:09.067Z,13.40
2018-06-24T06:03:37.564Z,13.40
2018-06-24T06:06:06.176Z,13.40
2018-06-24T06:08:34.687Z,13.40
2018-06-24T06:11:03.228Z,13.40
2018-06-24T06:13:31.858Z,13.40
2018-06-24T06:16:00.433Z,13.40
2018-06-24T06:18:29.098Z,13.40
2018-06-24T06:20:57.787Z,13.40
2018-06-24T06:23:26.517Z,13.40
2018-06-24T06:25:54.988Z,13.30
2018-06-24T06:28:23.664Z,13.40
2018-06-24T06:30:52.170Z,13.40
2018-06-24T06:33:20.716Z,13.40
2018-06-24T06:35:49.318Z,13.40
2018-06-24T06:38:17.846Z,13.50
2018-06-24T06:40:46.431Z,13.50
2018-06-24T06:43:14.938Z,13.60
2018-06-24T06:45:43.614Z,13.60
2018-06-24T06:48:11.959Z,13.60
2018-06-24T06:50:40.495Z,13.60
2018-06-24T06:55:37.183Z,13.60
2018-06-24T06:58:06.090Z,13.60
2018-06-24T07:00:34.594Z,13.70
2018-06-24T07:03:03.202Z,13.60
2018-06-24T07:05:31.744Z,13.60
2018-06-24T07:08:00.351Z,13.60
2018-06-24T07:10:28.957Z,13.60
2018-06-24T07:15:26.076Z,13.60
2018-06-24T07:17:54.681Z,13.60
2018-06-24T07:20:23.191Z,13.60
2018-06-24T07:22:51.721Z,13.50
2018-06-24T07:25:20.251Z,13.50
2018-06-24T07:27:48.934Z,13.60
2018-06-24T07:30:17.407Z,13.60
2018-06-24T07:35:14.199Z,13.60
2018-06-24T07:37:42.892Z,13.70
2018-06-24T07:40:11.455Z,13.70
2018-06-24T07:42:39.991Z,13.70
2018-06-24T07:45:08.587Z,13.70
2018-06-24T07:47:37.120Z,13.80
2018-06-24T07:50:05.675Z,13.80
2018-06-24T07:52:34.247Z,13.70
2018-06-24T07:55:02.795Z,13.80
2018-06-24T07:57:31.542Z,13.90
2018-06-24T07:59:59.985Z,13.90
2018-06-24T08:02:28.574Z,14.00
2018-06-24T08:04:57.107Z,14.00
2018-06-24T08:07:25.778Z,14.00
2018-06-24T08:09:54.288Z,14.00
2018-06-24T08:12:22.828Z,14.00
2018-06-24T08:14:51.350Z,14.00
2018-06-24T08:17:19.907Z,14.00
2018-06-24T08:19:48.423Z,14.00
2018-06-24T08:22:16.913Z,14.10
2018-06-24T08:24:45.536Z,14.10
2018-06-24T08:27:14.072Z,14.10
2018-06-24T08:29:42.535Z,14.20
2018-06-24T08:32:11.055Z,14.20
2018-06-24T08:34:40.429Z,14.30
2018-06-24T08:37:09.162Z,14.30
2018-06-24T08:42:05.973Z,14.40
2018-06-24T08:44:34.549Z,14.40
2018-06-24T08:47:03.209Z,14.50
2018-06-24T08:49:31.871Z,14.50
2018-06-24T08:52:00.475Z,14.50
2018-06-24T08:54:29.101Z,14.50
2018-06-24T08:56:57.644Z,14.60
2018-06-24T08:59:26.310Z,14.60
2018-06-24T09:01:55.154Z,14.70
2018-06-24T09:04:23.651Z,14.70
2018-06-24T09:06:52.391Z,14.70
2018-06-24T09:09:20.964Z,14.80
2018-06-24T09:11:49.480Z,14.70
2018-06-24T09:14:18.033Z,14.80
2018-06-24T09:16:46.828Z,14.80
2018-06-24T09:19:15.324Z,14.70
2018-06-24T09:21:44.020Z,14.70
2018-06-24T09:24:12.512Z,14.70
2018-06-24T09:26:41.174Z,14.70
2018-06-24T09:29:09.782Z,14.70
2018-06-24T09:31:38.268Z,14.60
2018-06-24T09:34:06.773Z,14.60
2018-06-24T09:36:35.578Z,14.60
2018-06-24T09:39:06.559Z,14.60
2018-06-24T09:41:35.107Z,14.60
2018-06-24T09:44:03.691Z,14.70
2018-06-24T09:46:32.200Z,14.70
2018-06-24T09:49:00.957Z,14.70
2018-06-24T09:51:29.446Z,14.80
2018-06-24T09:53:58.135Z,14.80
2018-06-24T09:56:26.824Z,14.80
2018-06-24T09:58:55.375Z,14.80
2018-06-24T10:01:23.977Z,14.80
2018-06-24T10:03:52.727Z,14.80
2018-06-24T10:06:21.251Z,14.80
2018-06-24T10:08:49.805Z,14.80
2018-06-24T10:11:18.671Z,14.80
2018-06-24T10:13:47.196Z,14.80
2018-06-24T10:16:15.769Z,14.90
2018-06-24T10:18:44.567Z,14.90
2018-06-24T10:21:13.110Z,14.90
2018-06-24T10:23:41.883Z,14.90
2018-06-24T10:26:10.576Z,15.00
2018-06-24T10:28:39.020Z,15.00
2018-06-24T10:31:07.634Z,15.00
2018-06-24T10:33:36.362Z,14.90
2018-06-24T10:36:04.943Z,14.90
2018-06-24T10:38:33.533Z,15.00
2018-06-24T10:41:02.155Z,15.00
2018-06-24T10:43:30.678Z,15.00
2018-06-24T10:45:59.441Z,15.00
2018-06-24T10:48:28.117Z,15.00
2018-06-24T10:50:56.772Z,15.00
2018-06-24T10:53:25.303Z,15.00
2018-06-24T10:55:53.824Z,15.00
2018-06-24T10:58:22.395Z,15.00
2018-06-24T11:00:51.018Z,15.00
2018-06-24T11:03:19.763Z,15.00
2018-06-24T11:05:48.375Z,14.90
2018-06-24T11:08:17.035Z,14.80
2018-06-24T11:10:45.721Z,14.80
2018-06-24T11:13:14.402Z,14.80
2018-06-24T11:15:43.343Z,14.80
2018-06-24T11:20:40.040Z,14.80
2018-06-24T11:23:08.590Z,14.80
2018-06-24T11:25:37.199Z,14.80
2018-06-24T11:28:07.062Z,14.80
2018-06-24T11:30:35.854Z,14.80
2018-06-24T11:33:04.432Z,14.80
2018-06-24T11:38:01.244Z,14.80
2018-06-24T11:40:29.954Z,14.80
2018-06-24T11:42:58.623Z,14.80
2018-06-24T11:45:27.130Z,14.90
2018-06-24T11:47:55.682Z,14.90
2018-06-24T11:50:24.273Z,14.90
2018-06-24T11:52:52.861Z,14.90
2018-06-24T11:55:21.436Z,14.90
2018-06-24T11:57:50.008Z,14.90
2018-06-24T12:00:18.584Z,14.90
2018-06-24T12:02:47.180Z,14.90
2018-06-24T12:05:15.783Z,14.90
2018-06-24T12:07:44.350Z,14.90
2018-06-24T12:10:13.110Z,14.90
2018-06-24T12:12:41.719Z,14.90
2018-06-24T12:15:10.315Z,14.90
2018-06-24T12:17:39.014Z,14.90
2018-06-24T12:20:07.592Z,14.90
2018-06-24T12:22:36.542Z,14.90
2018-06-24T12:25:05.498Z,14.90
2018-06-24T12:27:34.305Z,15.00
2018-06-24T12:30:02.847Z,14.90
2018-06-24T12:32:31.582Z,14.90
2018-06-24T12:35:00.115Z,14.90
2018-06-24T12:37:28.745Z,14.90
2018-06-24T12:39:57.402Z,14.90
2018-06-24T12:42:26.028Z,14.90
2018-06-24T12:44:54.661Z,14.90
2018-06-24T12:47:23.204Z,14.90
2018-06-24T12:49:51.767Z,14.90
2018-06-24T12:52:20.888Z,14.90
2018-06-24T12:54:49.374Z,15.00
2018-06-24T12:57:17.913Z,15.00
2018-06-24T12:59:46.914Z,15.00
2018-06-24T13:02:15.284Z,15.00
2018-06-24T13:04:43.828Z,15.10
2018-06-24T13:07:12.508Z,15.10
2018-06-24T13:09:41.203Z,15.10
2018-06-24T13:12:09.406Z,15.10
2018-06-24T13:14:38.083Z,15.10
2018-06-24T13:17:06.600Z,15.00
2018-06-24T13:19:35.264Z,15.00
2018-06-24T13:22:03.772Z,15.00
2018-06-24T13:24:32.382Z,15.00
2018-06-24T13:27:00.935Z,15.00
2018-06-24T13:29:29.587Z,15.00
2018-06-24T13:31:58.248Z,15.00
2018-06-24T13:34:26.682Z,15.00
2018-06-24T13:36:55.256Z,14.90
2018-06-24T13:39:23.750Z,15.00
2018-06-24T13:41:52.453Z,15.00
2018-06-24T13:44:21.334Z,15.00
2018-06-24T13:46:50.183Z,15.00
2018-06-24T13:49:19.148Z,15.10
2018-06-24T13:51:48.090Z,15.00
2018-06-24T13:54:16.837Z,15.00
2018-06-24T13:56:45.692Z,15.00
2018-06-24T13:59:14.250Z,15.00
2018-06-24T14:01:42.831Z,15.00
2018-06-24T14:04:11.488Z,15.00
2018-06-24T14:06:40.127Z,14.90
2018-06-24T14:09:11.143Z,14.90
2018-06-24T14:11:39.645Z,14.90
2018-06-24T14:14:09.023Z,14.90
2018-06-24T14:16:37.609Z,14.90
2018-06-24T14:19:06.327Z,14.90
2018-06-24T14:21:34.972Z,14.90
2018-06-24T14:24:03.550Z,14.90
2018-06-24T14:26:32.314Z,14.90
2018-06-24T14:29:00.839Z,14.90
2018-06-24T14:31:29.354Z,15.00
2018-06-24T14:33:57.932Z,15.00
2018-06-24T14:36:26.500Z,14.90
2018-06-24T14:38:55.067Z,14.90
2018-06-24T14:41:24.312Z,14.90
2018-06-24T14:43:52.899Z,14.90
2018-06-24T14:46:21.508Z,14.90
2018-06-24T14:48:50.081Z,14.90
2018-06-24T14:51:18.655Z,14.90
2018-06-24T14:53:47.180Z,14.90
2018-06-24T14:56:15.952Z,15.00
2018-06-24T14:58:44.509Z,15.00
2018-06-24T15:01:13.030Z,15.00
2018-06-24T15:03:41.586Z,15.00
2018-06-24T15:06:10.201Z,15.00
2018-06-24T15:08:38.755Z,14.90
2018-06-24T15:11:07.368Z,15.00
2018-06-24T15:13:36.091Z,15.00
2018-06-24T15:16:04.929Z,15.00
2018-06-24T15:18:33.566Z,15.00
2018-06-24T15:21:02.258Z,15.00
2018-06-24T15:23:30.808Z,15.00
2018-06-24T15:25:59.382Z,15.00
2018-06-24T15:28:27.892Z,15.00
2018-06-24T15:30:56.482Z,15.00
2018-06-24T15:33:24.983Z,15.00
2018-06-24T15:35:53.616Z,15.00
2018-06-24T15:40:50.813Z,14.90
2018-06-24T15:43:21.348Z,14.90
2018-06-24T15:45:49.947Z,14.90
2018-06-24T15:48:18.700Z,14.90
2018-06-24T15:50:47.293Z,14.90
2018-06-24T15:53:15.971Z,14.90
2018-06-24T15:55:44.587Z,14.90
2018-06-24T15:58:13.332Z,14.90
2018-06-24T16:00:41.847Z,14.90
2018-06-24T16:03:10.507Z,14.90
2018-06-24T16:05:39.319Z,14.90
2018-06-24T16:08:08.107Z,14.80
2018-06-24T16:10:36.666Z,14.80
2018-06-24T16:13:05.591Z,14.90
2018-06-24T16:15:34.201Z,14.90
2018-06-24T16:18:02.899Z,14.80
2018-06-24T16:20:31.527Z,14.90
2018-06-24T16:22:59.962Z,14.80
2018-06-24T16:25:28.534Z,14.80
2018-06-24T16:27:57.203Z,14.80
2018-06-24T16:30:25.785Z,14.90
2018-06-24T16:32:54.349Z,14.90
2018-06-24T16:35:23.108Z,14.90
2018-06-24T16:37:51.828Z,14.90
2018-06-24T16:40:20.317Z,14.90
2018-06-24T16:42:48.980Z,14.80
2018-06-24T16:45:17.630Z,14.80
2018-06-24T16:47:46.352Z,14.80
2018-06-24T16:50:14.915Z,14.90
2018-06-24T16:55:11.963Z,14.80
2018-06-24T16:57:40.633Z,14.80
2018-06-24T17:00:09.287Z,14.80
2018-06-24T17:02:38.463Z,14.90
2018-06-24T17:05:07.008Z,14.90
2018-06-24T17:07:35.697Z,14.90
2018-06-24T17:10:04.261Z,14.90
2018-06-24T17:12:32.857Z,14.90
2018-06-24T17:15:01.505Z,14.90
2018-06-24T17:17:30.059Z,14.90
2018-06-24T17:19:58.882Z,14.90
2018-06-24T17:22:27.604Z,14.80
2018-06-24T17:24:56.206Z,14.80
2018-06-24T17:27:25.138Z,14.80
2018-06-24T17:29:53.843Z,14.80
2018-06-24T17:32:22.371Z,14.80
2018-06-24T17:34:51.008Z,14.80
2018-06-24T17:37:19.568Z,14.80
2018-06-24T17:39:48.246Z,14.70
2018-06-24T17:42:17.162Z,14.70
2018-06-24T17:44:45.742Z,14.70
2018-06-24T17:47:14.304Z,14.70
2018-06-24T17:49:42.982Z,14.70
2018-06-24T17:52:11.756Z,14.70
2018-06-24T17:54:40.404Z,14.70
2018-06-24T17:57:09.008Z,14.70
2018-06-24T17:59:37.743Z,14.70
2018-06-24T18:02:06.511Z,14.70
2018-06-24T18:04:35.060Z,14.70
2018-06-24T18:07:03.711Z,14.70
2018-06-24T18:09:32.386Z,14.70
2018-06-24T18:12:01.216Z,14.70
2018-06-24T18:16:58.155Z,14.70
2018-06-24T18:19:26.828Z,14.70
2018-06-24T18:21:55.582Z,14.70
2018-06-24T18:24:24.211Z,14.70
2018-06-24T18:26:52.830Z,14.70
2018-06-24T18:29:21.693Z,14.70
2018-06-24T18:31:50.400Z,14.70
2018-06-24T18:34:19.085Z,14.70
2018-06-24T18:36:47.886Z,14.70
2018-06-24T18:39:16.551Z,14.70
2018-06-24T18:41:45.062Z,14.70
2018-06-24T18:44:13.767Z,14.70
2018-06-24T18:46:42.357Z,14.70
2018-06-24T18:49:10.989Z,14.80
2018-06-24T18:51:39.836Z,14.70
2018-06-24T18:54:08.411Z,14.70
2018-06-24T18:56:37.349Z,14.70
2018-06-24T18:59:05.940Z,14.70
2018-06-24T19:01:34.542Z,14.70
2018-06-24T19:04:03.452Z,14.70
2018-06-24T19:06:32.022Z,14.70
2018-06-24T19:09:00.702Z,14.70
2018-06-24T19:11:29.326Z,14.60
2018-06-24T19:13:58.032Z,14.70
2018-06-24T19:16:26.604Z,14.70
2018-06-24T19:18:55.561Z,14.60
2018-06-24T19:21:24.085Z,14.70
2018-06-24T19:23:52.777Z,14.60
2018-06-24T19:26:21.632Z,14.60
2018-06-24T19:28:50.433Z,14.60
2018-06-24T19:31:18.974Z,14.60
2018-06-24T19:33:47.848Z,14.60
2018-06-24T19:36:16.655Z,14.60
2018-06-24T19:38:45.399Z,14.50
2018-06-24T19:41:14.131Z,14.50
2018-06-24T19:43:42.753Z,14.50
2018-06-24T19:46:11.340Z,14.50
2018-06-24T19:48:40.018Z,14.50
2018-06-24T19:51:08.554Z,14.50
2018-06-24T19:53:37.246Z,14.50
2018-06-24T19:56:05.911Z,14.50
2018-06-24T19:58:34.603Z,14.50
2018-06-24T20:01:03.387Z,14.50
2018-06-24T20:03:32.232Z,14.50
2018-06-24T20:06:00.895Z,14.50
2018-06-24T20:08:29.443Z,14.50
2018-06-24T20:10:57.992Z,14.50
2018-06-24T20:13:26.544Z,14.50
2018-06-24T20:15:55.136Z,14.50
2018-06-24T20:18:23.681Z,14.50
2018-06-24T20:20:52.202Z,14.50
2018-06-24T20:25:49.090Z,14.50
2018-06-24T20:28:17.629Z,14.50
2018-06-24T20:30:46.488Z,14.50
2018-06-24T20:33:15.277Z,14.40
2018-06-24T20:35:43.941Z,14.50
2018-06-24T20:38:12.855Z,14.50
2018-06-24T20:40:41.576Z,14.40
2018-06-24T20:43:10.165Z,14.50
2018-06-24T20:45:38.765Z,14.40
2018-06-24T20:48:07.835Z,14.40
2018-06-24T20:50:37.063Z,14.40
2018-06-24T20:53:06.139Z,14.40
2018-06-24T20:55:34.817Z,14.40
2018-06-24T20:58:03.377Z,14.40
2018-06-24T21:00:32.068Z,14.40
2018-06-24T21:03:00.899Z,14.40
2018-06-24T21:05:29.522Z,14.40
2018-06-24T21:07:58.046Z,14.40
2018-06-24T21:10:26.600Z,14.40
2018-06-24T21:12:55.423Z,14.30
2018-06-24T21:15:23.990Z,14.30
2018-06-24T21:17:52.547Z,14.30
2018-06-24T21:20:21.051Z,14.30
2018-06-24T21:22:49.727Z,14.30
2018-06-24T21:25:18.387Z,14.30
2018-06-24T21:27:46.912Z,14.20
2018-06-24T21:30:15.404Z,14.20
2018-06-24T21:32:43.934Z,14.20
2018-06-24T21:35:12.591Z,14.10
2018-06-24T21:37:41.126Z,14.10
2018-06-24T21:40:10.599Z,14.00
2018-06-24T21:42:39.348Z,14.00
2018-06-24T21:45:07.894Z,14.00
2018-06-24T21:47:36.383Z,14.00
2018-06-24T21:50:05.198Z,13.90
2018-06-24T21:52:33.716Z,13.90
2018-06-24T21:55:02.518Z,13.90
2018-06-24T21:57:31.067Z,13.90
2018-06-24T21:59:59.613Z,13.90
2018-06-24T22:02:28.111Z,13.90
2018-06-24T22:04:56.609Z,13.90
2018-06-24T22:07:25.172Z,13.90
2018-06-24T22:09:53.790Z,13.90
2018-06-24T22:12:22.362Z,14.00
2018-06-24T22:14:50.863Z,13.90
2018-06-24T22:17:19.465Z,14.00
2018-06-24T22:19:48.096Z,14.00
2018-06-24T22:22:16.809Z,14.10
2018-06-24T22:24:45.415Z,14.10
2018-06-24T22:27:14.121Z,14.00
2018-06-24T22:29:42.599Z,14.00
2018-06-24T22:32:11.157Z,14.00
2018-06-24T22:34:39.703Z,14.00
2018-06-24T22:37:08.372Z,14.00
2018-06-24T22:39:36.835Z,13.70
2018-06-24T22:42:05.475Z,14.10
2018-06-24T22:44:34.024Z,14.10
2018-06-24T22:47:02.986Z,14.10
2018-06-24T22:51:59.743Z,14.20
2018-06-24T22:54:28.299Z,14.20
2018-06-24T22:56:56.847Z,14.20
2018-06-24T22:59:36.730Z,14.20
2018-06-24T23:02:05.565Z,14.20
2018-06-24T23:04:34.056Z,14.20
2018-06-24T23:07:02.577Z,14.20
2018-06-24T23:09:31.046Z,14.10
2018-06-24T23:11:59.775Z,14.10
2018-06-24T23:14:28.308Z,14.10
2018-06-24T23:16:56.802Z,14.10
2018-06-24T23:19:25.272Z,14.10
2018-06-24T23:21:53.938Z,14.00
2018-06-24T23:24:22.395Z,14.00
2018-06-24T23:26:50.962Z,14.00
2018-06-24T23:29:19.522Z,14.00
2018-06-24T23:31:48.033Z,14.00
2018-06-24T23:34:16.650Z,13.90
2018-06-24T23:36:45.131Z,13.90
2018-06-24T23:39:13.619Z,13.90
2018-06-24T23:41:42.115Z,13.90
2018-06-24T23:44:10.623Z,13.90
2018-06-24T23:46:39.286Z,13.90
2018-06-24T23:49:07.954Z,13.80
2018-06-24T23:51:36.667Z,13.90
2018-06-24T23:54:05.426Z,13.80
2018-06-24T23:56:33.903Z,13.80
2018-06-24T23:59:02.526Z,13.80
